Time;durP1;ratioP1;P1;durP2;ratioP2;P2;SDS_P1;SDS_P2;PMS_P1;PMS_P2;Temp;Humidity;BMP_temperature;BMP_pressure;BME280_temperature;BME280_humidity;BME280_pressure;Samples;Min_cycle;Max_cycle;Signal;HPM_P1;HPM_P2
2023/06/24 00:01:14;;;;;;;;;;;;;;;25.34;58.53;99622.22;5092359;28;19919;-44
2023/06/24 00:03:40;;;;;;;;;;;;;;;25.42;58.09;99624.22;5092477;28;19912;-43
2023/06/24 00:06:05;;;;;;;;;;;;;;;25.13;59.09;99633.50;5092300;28;19919;-43
2023/06/24 00:08:36;;;;;;;;;;;;;;;25.00;59.19;99630.78;5092385;28;20019;-40
2023/06/24 00:11:02;;;;;;;;;;;;;;;24.77;60.50;99625.25;5092566;28;19922;-40
2023/06/24 00:13:28;;;;;;;;;;;;;;;24.99;59.56;99619.09;5092004;28;19912;-44
2023/06/24 00:15:54;;;;;;;;;;;;;;;24.94;59.44;99617.28;5091728;28;19916;-41
2023/06/24 00:18:19;;;;;;;;;;;;;;;24.40;60.80;99614.13;5092216;28;19969;-42
2023/06/24 00:20:44;;;;;;;;;;;;;;;24.14;60.77;99600.19;5092298;28;20364;-42
2023/06/24 00:23:14;;;;;;;;;;;;;;;24.32;60.40;99619.47;5092332;28;19919;-42
2023/06/24 00:25:39;;;;;;;;;;;;;;;23.93;61.79;99617.91;5091988;28;20003;-41
2023/06/24 00:28:05;;;;;;;;;;;;;;;23.98;61.94;99613.19;5092009;28;20023;-42
2023/06/24 00:30:30;;;;;;;;;;;;;;;24.03;61.86;99617.75;5091957;28;19916;-41
2023/06/24 00:32:56;;;;;;;;;;;;;;;23.91;62.17;99615.50;5091844;28;19951;-42
2023/06/24 00:35:21;;;;;;;;;;;;;;;23.96;61.99;99615.41;5091669;28;19999;-42
2023/06/24 00:37:47;;;;;;;;;;;;;;;24.14;61.50;99610.25;5091841;28;19951;-42
2023/06/24 00:40:15;;;;;;;;;;;;;;;23.74;62.73;99610.56;5091685;28;19956;-42
2023/06/24 00:42:41;;;;;;;;;;;;;;;23.92;62.20;99610.88;5092085;28;19995;-41
2023/06/24 00:45:07;;;;;;;;;;;;;;;23.99;61.72;99608.59;5091738;28;20102;-42
2023/06/24 00:47:33;;;;;;;;;;;;;;;24.08;60.98;99620.38;5091672;28;19912;-42
2023/06/24 00:49:58;;;;;;;;;;;;;;;24.28;59.93;99610.31;5091571;28;19927;-43
2023/06/24 00:52:24;;;;;;;;;;;;;;;24.07;60.23;99601.69;5091609;28;19912;-43
2023/06/24 00:54:49;;;;;;;;;;;;;;;23.88;60.40;99597.06;5091421;28;19919;-42
2023/06/24 00:57:15;;;;;;;;;;;;;;;23.74;60.96;99602.41;5091354;28;19920;-42
2023/06/24 00:59:42;;;;;;;;;;;;;;;23.55;61.12;99596.16;5091311;28;20280;-42
2023/06/24 01:02:08;;;;;;;;;;;;;;;23.50;61.06;99597.03;5091001;28;19920;-41
2023/06/24 01:04:34;;;;;;;;;;;;;;;23.55;61.05;99596.97;5091249;28;19927;-42
2023/06/24 01:07:00;;;;;;;;;;;;;;;23.25;60.84;99591.94;5090930;28;20020;-42
2023/06/24 01:09:25;;;;;;;;;;;;;;;23.03;60.89;99593.31;5090823;28;19999;-42
2023/06/24 01:11:51;;;;;;;;;;;;;;;23.07;60.44;99598.97;5091021;28;19912;-43
2023/06/24 01:14:19;;;;;;;;;;;;;;;23.07;59.94;99598.97;5090481;28;20500;-42
2023/06/24 01:17:03;;;;;;;;;;;;;;;22.99;59.49;99597.66;5090695;28;19916;-42
2023/06/24 01:19:41;;;;;;;;;;;;;;;23.05;58.77;99607.38;5091154;28;19916;-44
2023/06/24 01:22:15;;;;;;;;;;;;;;;23.25;58.01;99608.22;5091688;28;19934;-43
2023/06/24 01:24:40;;;;;;;;;;;;;;;23.15;57.92;99595.59;5091583;28;19920;-42
2023/06/24 01:27:05;;;;;;;;;;;;;;;23.12;57.53;99593.47;5090543;28;19912;-43
2023/06/24 01:30:07;;;;;;;;;;;;;;;23.15;57.08;99587.44;5091495;28;20007;-43
2023/06/24 01:32:44;;;;;;;;;;;;;;;23.27;56.57;99590.56;5068500;28;19946;-42
2023/06/24 01:35:16;;;;;;;;;;;;;;;22.94;56.85;99590.41;5088695;28;19947;-43
2023/06/24 01:37:42;;;;;;;;;;;;;;;22.92;57.06;99589.06;5091188;28;20299;-44
2023/06/24 01:40:11;;;;;;;;;;;;;;;23.05;56.81;99588.38;5091579;28;19916;-43
2023/06/24 01:42:41;;;;;;;;;;;;;;;22.74;57.95;99596.06;5091418;28;20264;-43
2023/06/24 01:45:09;;;;;;;;;;;;;;;22.76;57.84;99596.56;5091368;28;19939;-42
2023/06/24 01:47:35;;;;;;;;;;;;;;;22.77;58.03;99604.44;5091252;28;19913;-42
2023/06/24 01:50:03;;;;;;;;;;;;;;;22.65;58.07;99598.56;5091197;28;20006;-42
2023/06/24 01:52:30;;;;;;;;;;;;;;;22.61;58.63;99606.47;5091287;28;19915;-42
2023/06/24 01:54:55;;;;;;;;;;;;;;;22.88;57.79;99599.69;5091073;28;19912;-42
2023/06/24 01:57:22;;;;;;;;;;;;;;;22.93;57.31;99596.91;5090953;28;20317;-42
2023/06/24 01:59:48;;;;;;;;;;;;;;;22.80;58.12;99603.84;5091071;28;19912;-42
2023/06/24 02:02:14;;;;;;;;;;;;;;;22.79;58.22;99606.81;5090840;28;19919;-42
2023/06/24 02:04:39;;;;;;;;;;;;;;;22.70;58.46;99611.28;5090803;28;19965;-42
2023/06/24 02:07:05;;;;;;;;;;;;;;;22.85;58.19;99605.69;5090946;28;19969;-43
2023/06/24 02:09:32;;;;;;;;;;;;;;;22.81;58.04;99616.31;5090808;28;20308;-42
2023/06/24 02:11:58;;;;;;;;;;;;;;;22.70;58.07;99622.13;5090895;28;19940;-43
2023/06/24 02:14:24;;;;;;;;;;;;;;;22.51;58.63;99616.63;5090741;28;19912;-43
2023/06/24 02:16:56;;;;;;;;;;;;;;;22.23;59.31;99622.50;5090864;28;19916;-43
2023/06/24 02:19:22;;;;;;;;;;;;;;;22.46;58.73;99620.19;5090581;28;19919;-43
2023/06/24 02:21:48;;;;;;;;;;;;;;;22.10;59.96;99630.47;5090698;28;19911;-42
2023/06/24 02:24:14;;;;;;;;;;;;;;;22.32;59.16;99621.94;5090610;28;20379;-43
2023/06/24 02:26:40;;;;;;;;;;;;;;;22.05;60.32;99632.13;5090626;28;19912;-43
2023/06/24 02:29:08;;;;;;;;;;;;;;;21.90;60.36;99645.78;5091030;28;19969;-43
2023/06/24 02:31:33;;;;;;;;;;;;;;;22.10;59.56;99638.59;5090529;28;19958;-43
2023/06/24 02:33:58;;;;;;;;;;;;;;;22.13;59.65;99651.59;5090587;28;19920;-42
2023/06/24 02:36:24;;;;;;;;;;;;;;;22.38;58.74;99650.63;5090504;28;19916;-43
2023/06/24 02:38:49;;;;;;;;;;;;;;;22.32;58.68;99654.47;5093246;28;20355;-42
2023/06/24 02:41:14;;;;;;;;;;;;;;;22.48;58.32;99658.66;5097326;28;19935;-40
2023/06/24 02:43:40;;;;;;;;;;;;;;;22.34;58.76;99655.78;5097665;28;20245;-43
2023/06/24 02:46:06;;;;;;;;;;;;;;;22.49;58.62;99659.47;5097501;28;19919;-44
2023/06/24 02:48:32;;;;;;;;;;;;;;;22.34;58.67;99663.13;5096808;28;19995;-43
2023/06/24 02:50:58;;;;;;;;;;;;;;;22.22;59.10;99666.97;5097297;28;19912;-42
2023/06/24 02:53:24;;;;;;;;;;;;;;;22.29;59.08;99674.00;5097254;28;19912;-42
2023/06/24 02:55:49;;;;;;;;;;;;;;;22.58;58.08;99672.13;5097133;28;19935;-43
2023/06/24 02:58:14;;;;;;;;;;;;;;;22.61;58.08;99668.03;5097129;28;19916;-43
2023/06/24 03:00:40;;;;;;;;;;;;;;;22.68;57.95;99671.22;5097137;28;19912;-42
2023/06/24 03:03:06;;;;;;;;;;;;;;;22.56;58.54;99671.63;5097052;28;19912;-42
2023/06/24 03:05:35;;;;;;;;;;;;;;;22.84;57.54;99678.13;5097038;28;20256;-42
2023/06/24 03:08:00;;;;;;;;;;;;;;;22.83;57.83;99667.56;5096788;28;20003;-41
2023/06/24 03:10:25;;;;;;;;;;;;;;;22.91;57.39;99664.22;5097066;28;19992;-42
2023/06/24 03:12:51;;;;;;;;;;;;;;;22.78;57.12;99662.19;5097290;28;19913;-41
2023/06/24 03:15:17;;;;;;;;;;;;;;;22.67;58.07;99666.09;5096524;28;19958;-42
2023/06/24 03:17:42;;;;;;;;;;;;;;;22.72;58.02;99664.13;5096796;28;19926;-41
2023/06/24 03:20:08;;;;;;;;;;;;;;;22.79;57.46;99666.50;5096581;28;20301;-42
2023/06/24 03:22:33;;;;;;;;;;;;;;;22.89;57.06;99665.63;5096952;28;20257;-42
2023/06/24 03:24:59;;;;;;;;;;;;;;;22.62;57.59;99658.81;5097041;28;19920;-43
2023/06/24 03:27:24;;;;;;;;;;;;;;;22.47;58.23;99667.91;5096804;28;19991;-42
2023/06/24 03:29:49;;;;;;;;;;;;;;;22.44;58.05;99676.59;5096925;28;20371;-42
2023/06/24 03:32:15;;;;;;;;;;;;;;;22.51;58.06;99677.06;5096646;28;19927;-42
2023/06/24 03:34:40;;;;;;;;;;;;;;;22.16;58.78;99684.38;5096936;28;19920;-42
2023/06/24 03:37:06;;;;;;;;;;;;;;;22.35;58.17;99679.13;5096643;28;20389;-42
2023/06/24 03:39:31;;;;;;;;;;;;;;;22.45;58.23;99680.94;5096797;28;20265;-41
2023/06/24 03:41:56;;;;;;;;;;;;;;;22.59;57.76;99673.75;5096946;28;19912;-40
2023/06/24 03:44:21;;;;;;;;;;;;;;;22.83;57.05;99681.13;5096784;28;20264;-41
2023/06/24 03:46:47;;;;;;;;;;;;;;;22.89;56.91;99666.41;5096548;28;19912;-42
2023/06/24 03:49:12;;;;;;;;;;;;;;;23.20;55.71;99666.91;5096602;28;19912;-42
2023/06/24 03:51:37;;;;;;;;;;;;;;;23.22;55.65;99670.13;5093096;28;19919;-42
2023/06/24 03:54:02;;;;;;;;;;;;;;;23.63;54.65;99671.56;5093355;28;19935;-43
2023/06/24 03:56:28;;;;;;;;;;;;;;;23.67;54.50;99677.22;5093275;28;20014;-43
2023/06/24 03:58:53;;;;;;;;;;;;;;;23.96;53.17;99672.47;5093498;28;20014;-43
2023/06/24 04:01:19;;;;;;;;;;;;;;;24.14;52.83;99672.75;5093134;28;20003;-43
2023/06/24 04:03:44;;;;;;;;;;;;;;;24.18;52.56;99679.25;5093623;28;20271;-42
2023/06/24 04:06:10;;;;;;;;;;;;;;;23.88;52.17;99683.22;5093484;28;19911;-42
2023/06/24 04:08:39;;;;;;;;;;;;;;;24.21;51.16;99675.91;5092874;28;19951;-42
2023/06/24 04:11:06;;;;;;;;;;;;;;;24.05;52.12;99680.00;5093211;28;20072;-42
2023/06/24 04:13:31;;;;;;;;;;;;;;;24.56;50.51;99685.44;5093361;28;19935;-41
2023/06/24 04:15:56;;;;;;;;;;;;;;;24.63;50.62;99684.25;5092503;28;19931;-39
2023/06/24 04:18:22;;;;;;;;;;;;;;;24.23;50.85;99681.06;5093277;28;19916;-43
2023/06/24 04:20:47;;;;;;;;;;;;;;;24.24;50.92;99683.50;5093040;28;19913;-43
2023/06/24 04:23:14;;;;;;;;;;;;;;;24.29;51.06;99686.09;5092747;28;19939;-37
2023/06/24 04:25:39;;;;;;;;;;;;;;;24.68;49.91;99692.31;5092992;28;19925;-35
2023/06/24 04:28:05;;;;;;;;;;;;;;;24.52;50.18;99695.31;5092814;28;20389;-35
2023/06/24 04:30:30;;;;;;;;;;;;;;;24.39;50.67;99702.28;5092929;28;19920;-36
2023/06/24 04:32:55;;;;;;;;;;;;;;;24.51;50.15;99701.00;5092808;28;19924;-40
2023/06/24 04:35:21;;;;;;;;;;;;;;;25.12;48.84;99712.75;5092516;28;20299;-36
2023/06/24 04:37:46;;;;;;;;;;;;;;;24.77;49.17;99704.16;5092712;28;20110;-36
2023/06/24 04:40:13;;;;;;;;;;;;;;;25.11;48.98;99698.34;5092537;28;20324;-37
2023/06/24 04:42:38;;;;;;;;;;;;;;;25.77;47.63;99694.59;5092689;28;20275;-36
2023/06/24 04:45:05;;;;;;;;;;;;;;;25.94;47.08;99698.31;5092255;28;19912;-37
2023/06/24 04:47:30;;;;;;;;;;;;;;;26.44;45.97;99712.97;5092655;28;19912;-37
2023/06/24 04:49:55;;;;;;;;;;;;;;;26.59;44.81;99714.53;5092148;28;19931;-37
2023/06/24 04:52:22;;;;;;;;;;;;;;;26.84;44.50;99711.16;5092084;28;19946;-36
2023/06/24 04:54:48;;;;;;;;;;;;;;;26.87;43.81;99726.13;5092281;28;20220;-36
2023/06/24 04:57:23;;;;;;;;;;;;;;;26.63;44.78;99721.00;5092264;28;20007;-36
2023/06/24 04:59:48;;;;;;;;;;;;;;;27.22;44.03;99726.28;5092142;28;19959;-37
2023/06/24 05:02:13;;;;;;;;;;;;;;;27.50;42.85;99727.72;5091346;28;20000;-37
2023/06/24 05:04:38;;;;;;;;;;;;;;;27.64;42.58;99727.56;5091507;28;20401;-36
2023/06/24 05:07:04;;;;;;;;;;;;;;;27.89;42.73;99722.50;5091401;28;19912;-37
2023/06/24 05:09:29;;;;;;;;;;;;;;;28.46;41.23;99724.28;5091356;28;19916;-37
2023/06/24 05:11:54;;;;;;;;;;;;;;;28.72;40.58;99735.22;5091573;28;19940;-36
2023/06/24 05:14:19;;;;;;;;;;;;;;;28.92;39.52;99738.41;5091011;28;19919;-36
2023/06/24 05:16:45;;;;;;;;;;;;;;;29.01;39.20;99733.69;5091130;28;19916;-35
2023/06/24 05:19:10;;;;;;;;;;;;;;;29.22;38.79;99731.88;5091245;28;20384;-36
2023/06/24 05:21:36;;;;;;;;;;;;;;;29.68;38.58;99740.34;5091337;28;19943;-36
2023/06/24 05:24:01;;;;;;;;;;;;;;;29.52;39.43;99745.59;5091341;28;19912;-38
2023/06/24 05:26:26;;;;;;;;;;;;;;;29.82;39.03;99745.63;5091039;28;20335;-36
2023/06/24 05:28:51;;;;;;;;;;;;;;;30.35;36.71;99733.16;5090965;28;19999;-34
2023/06/24 05:31:18;;;;;;;;;;;;;;;30.15;37.73;99750.41;5090930;28;19934;-35
2023/06/24 05:33:43;;;;;;;;;;;;;;;30.24;36.94;99745.66;5090943;28;20011;-37
2023/06/24 05:36:08;;;;;;;;;;;;;;;30.42;36.90;99740.03;5090692;28;20019;-37
2023/06/24 05:38:34;;;;;;;;;;;;;;;31.53;35.59;99739.16;5090769;28;19912;-37
2023/06/24 05:41:01;;;;;;;;;;;;;;;30.76;36.60;99739.69;5090674;28;19920;-37
2023/06/24 05:43:27;;;;;;;;;;;;;;;31.09;36.54;99749.06;5090912;28;20483;-36
2023/06/24 05:45:52;;;;;;;;;;;;;;;31.06;37.00;99749.75;5090677;28;19959;-36
2023/06/24 05:48:17;;;;;;;;;;;;;;;31.28;36.57;99756.75;5090585;28;19994;-36
2023/06/24 05:50:43;;;;;;;;;;;;;;;31.55;36.10;99739.63;5090376;28;20411;-37
2023/06/24 05:53:08;;;;;;;;;;;;;;;31.83;35.77;99738.88;5090478;28;19958;-36
2023/06/24 05:55:33;;;;;;;;;;;;;;;32.20;34.54;99735.28;5089773;28;20006;-37
2023/06/24 05:57:58;;;;;;;;;;;;;;;32.32;33.99;99733.28;5090360;28;19920;-37
2023/06/24 06:00:24;;;;;;;;;;;;;;;32.68;33.50;99737.03;5090560;28;19976;-36
2023/06/24 06:02:49;;;;;;;;;;;;;;;32.44;33.96;99748.13;5090572;28;19916;-37
2023/06/24 06:05:14;;;;;;;;;;;;;;;32.14;34.26;99743.78;5090518;28;19912;-34
2023/06/24 06:07:40;;;;;;;;;;;;;;;32.38;34.21;99741.28;5090858;28;19912;-37
2023/06/24 06:10:06;;;;;;;;;;;;;;;32.42;34.55;99740.22;5090394;28;19916;-36
2023/06/24 06:12:31;;;;;;;;;;;;;;;32.35;35.05;99740.03;5089735;28;19912;-37
2023/06/24 06:14:56;;;;;;;;;;;;;;;32.66;33.45;99738.56;5089033;28;20002;-37
2023/06/24 06:17:23;;;;;;;;;;;;;;;32.77;33.53;99730.56;5089587;28;20315;-37
2023/06/24 06:19:49;;;;;;;;;;;;;;;32.98;33.37;99735.84;5090002;28;20364;-37
2023/06/24 06:22:15;;;;;;;;;;;;;;;33.14;33.24;99724.84;5089814;28;19991;-36
2023/06/24 06:24:40;;;;;;;;;;;;;;;33.30;33.56;99729.19;5090106;28;19918;-37
2023/06/24 06:27:09;;;;;;;;;;;;;;;33.60;32.67;99714.09;5090420;28;19912;-36
2023/06/24 06:29:34;;;;;;;;;;;;;;;33.89;32.22;99701.75;5089566;28;20012;-35
2023/06/24 06:31:59;;;;;;;;;;;;;;;33.75;32.23;99715.25;5089415;28;20010;-35
2023/06/24 06:34:25;;;;;;;;;;;;;;;33.60;32.09;99711.34;5089704;28;20338;-36
2023/06/24 06:36:50;;;;;;;;;;;;;;;33.35;32.66;99708.03;5089803;28;19917;-35
2023/06/24 06:39:15;;;;;;;;;;;;;;;33.74;32.67;99710.88;5090224;28;19919;-36
2023/06/24 06:41:41;;;;;;;;;;;;;;;33.83;33.06;99717.00;5090958;28;19912;-36
2023/06/24 06:44:06;;;;;;;;;;;;;;;33.99;33.38;99712.25;5091444;28;20010;-35
2023/06/24 06:46:32;;;;;;;;;;;;;;;33.91;33.39;99701.41;5091356;28;19912;-36
2023/06/24 06:48:59;;;;;;;;;;;;;;;34.27;32.56;99703.78;5091004;28;19935;-36
2023/06/24 06:51:25;;;;;;;;;;;;;;;34.19;32.96;99704.78;5091119;28;19912;-36
2023/06/24 06:53:50;;;;;;;;;;;;;;;34.32;31.84;99710.16;5090846;28;20060;-37
2023/06/24 06:56:17;;;;;;;;;;;;;;;33.94;32.55;99709.75;5090855;28;19912;-37
2023/06/24 06:58:42;;;;;;;;;;;;;;;33.70;32.60;99710.84;5090917;28;19912;-37
2023/06/24 07:01:07;;;;;;;;;;;;;;;33.86;32.26;99700.53;5090659;28;20027;-36
2023/06/24 07:03:32;;;;;;;;;;;;;;;34.02;32.15;99699.66;5090522;28;19916;-37
2023/06/24 07:05:58;;;;;;;;;;;;;;;33.64;32.19;99698.47;5090310;28;19912;-37
2023/06/24 07:08:23;;;;;;;;;;;;;;;33.68;33.10;99704.84;5090488;28;19948;-35
2023/06/24 07:10:49;;;;;;;;;;;;;;;33.56;32.43;99700.22;5090545;28;19916;-37
2023/06/24 07:13:14;;;;;;;;;;;;;;;33.62;33.11;99696.03;5090813;28;20012;-35
2023/06/24 07:15:39;;;;;;;;;;;;;;;33.73;32.20;99690.78;5090261;28;19922;-37
2023/06/24 07:18:05;;;;;;;;;;;;;;;33.89;32.48;99690.72;5090160;28;19916;-37
2023/06/24 07:20:30;;;;;;;;;;;;;;;33.48;32.94;99693.75;5090340;28;19920;-37
2023/06/24 07:22:55;;;;;;;;;;;;;;;33.25;33.17;99699.13;5090449;28;19961;-37
2023/06/24 07:25:20;;;;;;;;;;;;;;;33.04;34.09;99687.56;5090869;28;20398;-37
2023/06/24 07:27:46;;;;;;;;;;;;;;;33.22;33.59;99688.03;5094549;28;19985;-37
2023/06/24 07:30:11;;;;;;;;;;;;;;;33.35;32.91;99688.72;5094066;28;19919;-37
2023/06/24 07:32:36;;;;;;;;;;;;;;;33.28;33.08;99686.59;5094251;28;19924;-37
2023/06/24 07:35:02;;;;;;;;;;;;;;;33.74;33.13;99694.34;5094041;28;19968;-37
2023/06/24 07:37:27;;;;;;;;;;;;;;;34.07;31.94;99696.63;5094146;28;19974;-37
2023/06/24 07:39:52;;;;;;;;;;;;;;;34.56;31.34;99698.78;5094392;28;20007;-36
2023/06/24 07:42:19;;;;;;;;;;;;;;;34.38;31.80;99689.34;5094304;28;19923;-36
2023/06/24 07:44:45;;;;;;;;;;;;;;;33.82;31.90;99691.38;5094182;28;19919;-37
2023/06/24 07:47:10;;;;;;;;;;;;;;;33.98;32.32;99683.03;5094273;28;19938;-37
2023/06/24 07:49:35;;;;;;;;;;;;;;;34.17;31.81;99692.50;5093869;28;19916;-36
2023/06/24 07:52:00;;;;;;;;;;;;;;;34.54;31.70;99694.78;5094454;28;20285;-36
2023/06/24 07:54:26;;;;;;;;;;;;;;;34.86;32.25;99684.31;5093930;28;19912;-35
2023/06/24 07:56:51;;;;;;;;;;;;;;;34.93;30.90;99683.66;5093859;28;19923;-36
2023/06/24 07:59:16;;;;;;;;;;;;;;;34.63;30.69;99681.53;5094174;28;20072;-37
2023/06/24 08:01:41;;;;;;;;;;;;;;;33.40;33.15;99689.25;5093627;28;20015;-37
2023/06/24 08:04:07;;;;;;;;;;;;;;;34.18;32.91;99689.38;5093718;28;19912;-36
2023/06/24 08:06:32;;;;;;;;;;;;;;;34.60;31.06;99694.13;5093529;28;19912;-37
2023/06/24 08:08:57;;;;;;;;;;;;;;;34.22;32.19;99695.78;5093599;28;20349;-36
2023/06/24 08:11:22;;;;;;;;;;;;;;;34.53;32.07;99690.44;5093532;28;19912;-36
2023/06/24 08:13:48;;;;;;;;;;;;;;;34.33;31.71;99693.22;5093530;28;19912;-36
2023/06/24 08:16:16;;;;;;;;;;;;;;;34.22;31.43;99693.00;5092966;28;19953;-35
2023/06/24 08:18:41;;;;;;;;;;;;;;;34.21;31.92;99698.91;5093398;28;20368;-37
2023/06/24 08:21:06;;;;;;;;;;;;;;;34.18;31.72;99697.66;5093771;28;19919;-36
2023/06/24 08:23:32;;;;;;;;;;;;;;;33.82;31.94;99694.13;5093274;28;19912;-36
2023/06/24 08:25:57;;;;;;;;;;;;;;;34.32;31.20;99697.13;5093063;28;19913;-35
2023/06/24 08:28:22;;;;;;;;;;;;;;;34.63;31.33;99689.81;5093081;28;19912;-36
2023/06/24 08:30:47;;;;;;;;;;;;;;;34.53;31.40;99685.69;5093470;28;19916;-38
2023/06/24 08:33:13;;;;;;;;;;;;;;;34.84;31.42;99684.72;5092645;28;19924;-37
2023/06/24 08:35:38;;;;;;;;;;;;;;;34.83;30.28;99680.34;5092827;28;20283;-37
2023/06/24 08:38:03;;;;;;;;;;;;;;;34.22;31.75;99683.94;5092670;28;19955;-35
2023/06/24 08:40:29;;;;;;;;;;;;;;;34.36;31.35;99684.19;5092918;28;20221;-36
2023/06/24 08:42:54;;;;;;;;;;;;;;;34.41;30.82;99683.13;5093148;28;19939;-37
2023/06/24 08:45:20;;;;;;;;;;;;;;;34.41;31.28;99683.91;5093327;28;19916;-36
2023/06/24 08:47:47;;;;;;;;;;;;;;;35.04;29.89;99681.88;5093169;28;20424;-36
2023/06/24 08:50:16;;;;;;;;;;;;;;;34.82;29.89;99670.47;5092563;28;19913;-36
2023/06/24 08:52:42;;;;;;;;;;;;;;;35.29;31.00;99679.50;5092555;28;19935;-36
2023/06/24 08:55:09;;;;;;;;;;;;;;;34.92;30.90;99677.34;5092476;28;19962;-36
2023/06/24 08:57:34;;;;;;;;;;;;;;;34.94;31.08;99675.00;5092463;28;19948;-36
2023/06/24 08:59:59;;;;;;;;;;;;;;;34.03;32.00;99688.25;5092481;28;20016;-36
2023/06/24 09:02:24;;;;;;;;;;;;;;;33.96;31.82;99690.09;5092742;28;19916;-37
2023/06/24 09:04:51;;;;;;;;;;;;;;;34.89;31.10;99685.56;5092485;28;20379;-36
2023/06/24 09:07:25;;;;;;;;;;;;;;;34.83;31.67;99682.31;5092597;28;19912;-36
2023/06/24 09:09:50;;;;;;;;;;;;;;;35.38;31.31;99684.78;5092683;28;19924;-36
2023/06/24 09:12:15;;;;;;;;;;;;;;;35.69;30.26;99678.13;5092548;28;19912;-35
2023/06/24 09:14:41;;;;;;;;;;;;;;;34.97;32.26;99676.22;5092319;28;19912;-36
2023/06/24 09:17:06;;;;;;;;;;;;;;;35.22;30.93;99669.16;5092664;28;19929;-36
2023/06/24 09:19:36;;;;;;;;;;;;;;;35.15;31.41;99665.47;5092557;28;20348;-36
2023/06/24 09:22:02;;;;;;;;;;;;;;;35.35;30.99;99669.72;5092392;28;19912;-36
2023/06/24 09:24:29;;;;;;;;;;;;;;;35.29;30.67;99668.44;5092452;28;20391;-36
2023/06/24 09:26:56;;;;;;;;;;;;;;;34.84;31.59;99661.78;5092132;28;19912;-36
2023/06/24 09:29:24;;;;;;;;;;;;;;;34.95;31.40;99654.47;5091893;28;20411;-37
2023/06/24 09:31:52;;;;;;;;;;;;;;;35.02;30.21;99654.59;5091879;28;20348;-36
2023/06/24 09:34:18;;;;;;;;;;;;;;;34.71;31.55;99644.63;5091949;28;20364;-36
2023/06/24 09:36:44;;;;;;;;;;;;;;;34.15;33.09;99647.88;5091517;28;20290;-36
2023/06/24 09:39:10;;;;;;;;;;;;;;;34.21;32.61;99646.44;5091903;28;19918;-37
2023/06/24 09:41:36;;;;;;;;;;;;;;;34.43;32.82;99642.91;5091581;28;19912;-37
2023/06/24 09:44:01;;;;;;;;;;;;;;;34.03;33.28;99638.59;5091583;28;19912;-37
2023/06/24 09:46:27;;;;;;;;;;;;;;;33.56;33.11;99636.00;5091878;28;19919;-37
2023/06/24 09:48:53;;;;;;;;;;;;;;;33.41;33.28;99632.13;5091004;28;20283;-37
2023/06/24 09:51:19;;;;;;;;;;;;;;;33.48;32.87;99621.25;5091763;28;19973;-36
2023/06/24 09:53:44;;;;;;;;;;;;;;;33.44;33.29;99612.13;5091428;28;19912;-38
2023/06/24 09:56:09;;;;;;;;;;;;;;;33.64;32.95;99610.19;5091544;28;19954;-36
2023/06/24 09:58:40;;;;;;;;;;;;;;;33.67;33.12;99592.94;5091241;28;19923;-36
2023/06/24 10:01:06;;;;;;;;;;;;;;;34.01;32.77;99595.97;5091435;28;19981;-37
2023/06/24 10:03:33;;;;;;;;;;;;;;;33.43;34.62;99600.25;5091572;28;19916;-36
2023/06/24 10:05:59;;;;;;;;;;;;;;;33.19;35.31;99595.81;5091225;28;19912;-36
2023/06/24 10:08:24;;;;;;;;;;;;;;;33.68;34.15;99586.22;5091317;28;19985;-36
2023/06/24 10:10:49;;;;;;;;;;;;;;;33.91;33.42;99593.78;5091356;28;20348;-36
2023/06/24 10:13:15;;;;;;;;;;;;;;;34.47;31.29;99582.22;5091284;28;20401;-36
2023/06/24 10:15:40;;;;;;;;;;;;;;;34.81;30.89;99585.94;5090585;28;19984;-36
2023/06/24 10:18:24;;;;;;;;;;;;;;;35.34;30.69;99578.81;5091252;28;19916;-36
2023/06/24 10:20:49;;;;;;;;;;;;;;;35.29;30.34;99590.22;5091220;28;20031;-36
2023/06/24 10:23:14;;;;;;;;;;;;;;;34.99;30.87;99574.38;5090731;28;20007;-37
2023/06/24 10:25:40;;;;;;;;;;;;;;;35.68;30.05;99576.94;5090969;28;19920;-37
2023/06/24 10:28:05;;;;;;;;;;;;;;;36.96;29.28;99576.56;5091101;28;19915;-37
2023/06/24 10:30:33;;;;;;;;;;;;;;;37.77;27.54;99568.25;5090868;28;19920;-37
2023/06/24 10:32:58;;;;;;;;;;;;;;;38.13;27.70;99571.13;5090775;28;19955;-37
2023/06/24 10:35:25;;;;;;;;;;;;;;;38.67;27.36;99569.22;5091113;28;20240;-37
2023/06/24 10:37:54;;;;;;;;;;;;;;;38.23;26.92;99569.56;5090523;28;19920;-37
2023/06/24 10:40:33;;;;;;;;;;;;;;;38.08;27.46;99571.53;5090782;28;20008;-37
2023/06/24 10:42:59;;;;;;;;;;;;;;;37.47;27.89;99560.19;5090861;28;19969;-37
2023/06/24 10:45:24;;;;;;;;;;;;;;;36.66;29.23;99565.66;5090843;28;19935;-36
2023/06/24 10:47:56;;;;;;;;;;;;;;;37.56;28.14;99560.63;5090221;28;19913;-36
2023/06/24 10:50:23;;;;;;;;;;;;;;;38.02;28.39;99543.31;5091181;28;20278;-36
2023/06/24 10:52:49;;;;;;;;;;;;;;;38.16;27.00;99548.13;5090291;28;20255;-36
2023/06/24 10:55:15;;;;;;;;;;;;;;;37.34;28.31;99541.13;5090480;28;19913;-36
2023/06/24 10:57:41;;;;;;;;;;;;;;;36.95;28.68;99541.69;5090629;28;19920;-37
2023/06/24 11:00:06;;;;;;;;;;;;;;;36.88;29.20;99530.56;5092681;28;19912;-36
2023/06/24 11:02:32;;;;;;;;;;;;;;;36.97;29.42;99527.44;5094933;28;19919;-37
2023/06/24 11:05:01;;;;;;;;;;;;;;;35.63;31.00;99524.66;5094885;28;20324;-36
2023/06/24 11:07:27;;;;;;;;;;;;;;;35.52;31.00;99516.22;5094756;28;19916;-36
2023/06/24 11:09:56;;;;;;;;;;;;;;;36.83;29.75;99505.97;5094651;28;19960;-37
2023/06/24 11:12:25;;;;;;;;;;;;;;;37.63;28.74;99501.63;5094825;28;19913;-36
2023/06/24 11:14:51;;;;;;;;;;;;;;;37.79;28.93;99502.03;5094239;28;19970;-36
2023/06/24 11:17:16;;;;;;;;;;;;;;;37.21;29.17;99500.25;5094378;28;20408;-36
2023/06/24 11:19:43;;;;;;;;;;;;;;;37.97;28.23;99470.72;5094237;28;19969;-36
2023/06/24 11:22:09;;;;;;;;;;;;;;;38.71;27.18;99480.25;5094405;28;20014;-36
2023/06/24 11:24:34;;;;;;;;;;;;;;;38.83;27.05;99467.91;5094081;28;19919;-36
2023/06/24 11:26:59;;;;;;;;;;;;;;;37.57;29.04;99476.19;5094385;28;19919;-36
2023/06/24 11:29:28;;;;;;;;;;;;;;;37.32;28.35;99470.59;5094035;28;19919;-36
2023/06/24 11:31:53;;;;;;;;;;;;;;;37.03;29.37;99475.19;5093829;28;20016;-37
2023/06/24 11:34:19;;;;;;;;;;;;;;;37.43;28.57;99474.16;5094175;28;19974;-36
2023/06/24 11:36:44;;;;;;;;;;;;;;;37.13;28.42;99461.41;5093769;28;19916;-36
2023/06/24 11:39:19;;;;;;;;;;;;;;;36.35;29.82;99456.97;5094101;28;20015;-36
2023/06/24 11:41:45;;;;;;;;;;;;;;;37.01;29.40;99460.91;5094161;28;20015;-38
2023/06/24 11:44:10;;;;;;;;;;;;;;;36.42;30.34;99461.75;5094301;28;20019;-36
2023/06/24 11:46:37;;;;;;;;;;;;;;;36.76;30.00;99444.97;5094271;28;20265;-36
2023/06/24 11:49:06;;;;;;;;;;;;;;;37.70;29.61;99446.09;5093955;28;19923;-36
2023/06/24 11:51:31;;;;;;;;;;;;;;;37.27;28.27;99438.47;5093803;28;19921;-36
2023/06/24 11:54:01;;;;;;;;;;;;;;;36.87;29.10;99437.50;5093740;28;19912;-36
2023/06/24 11:56:39;;;;;;;;;;;;;;;36.72;29.53;99441.38;5093729;28;19912;-36
2023/06/24 11:59:05;;;;;;;;;;;;;;;35.99;30.82;99431.72;5093988;28;20015;-37
2023/06/24 12:01:33;;;;;;;;;;;;;;;36.15;30.33;99430.66;5093702;28;20371;-35
2023/06/24 12:04:14;;;;;;;;;;;;;;;36.32;29.69;99423.69;5093823;28;19919;-37
2023/06/24 12:06:40;;;;;;;;;;;;;;;36.14;30.70;99424.34;5093715;28;20386;-36
2023/06/24 12:09:06;;;;;;;;;;;;;;;36.80;29.81;99426.38;5093599;28;19948;-36
2023/06/24 12:11:31;;;;;;;;;;;;;;;36.97;29.49;99425.66;5092806;28;19989;-36
2023/06/24 12:13:56;;;;;;;;;;;;;;;36.50;28.72;99421.03;5091990;28;20332;-36
2023/06/24 12:16:23;;;;;;;;;;;;;;;36.26;28.79;99414.16;5093423;28;19969;-37
2023/06/24 12:18:48;;;;;;;;;;;;;;;36.72;29.06;99410.88;5093540;28;20562;-36
2023/06/24 12:21:13;;;;;;;;;;;;;;;36.70;29.59;99405.72;5093521;28;19918;-36
2023/06/24 12:23:39;;;;;;;;;;;;;;;35.98;30.10;99415.50;5093391;28;19912;-36
2023/06/24 12:26:04;;;;;;;;;;;;;;;36.06;30.31;99410.81;5093405;28;20426;-38
2023/06/24 12:28:29;;;;;;;;;;;;;;;36.66;29.22;99402.16;5093113;28;19985;-37
2023/06/24 12:30:54;;;;;;;;;;;;;;;36.62;29.69;99389.44;5093134;28;19916;-37
2023/06/24 12:33:22;;;;;;;;;;;;;;;36.15;30.40;99391.91;5092918;28;19928;-37
2023/06/24 12:35:47;;;;;;;;;;;;;;;36.48;29.65;99377.09;5093160;28;20285;-37
2023/06/24 12:38:13;;;;;;;;;;;;;;;36.92;28.96;99376.13;5092865;28;19923;-36
2023/06/24 12:40:38;;;;;;;;;;;;;;;35.75;29.58;99386.06;5092953;28;20375;-36
2023/06/24 12:43:04;;;;;;;;;;;;;;;35.71;29.08;99370.59;5092780;28;19969;-36